sensor_id;sensor_type;location;lat;lon;timestamp;pressure;altitude;pressure_sealevel;temperature;humidity
39455;BME280;25155;41.890;23.446;2024-02-14T00:00:07;91374.06;;;1.96;75.14
39455;BME280;25155;41.890;23.446;2024-02-14T00:02:38;91380.69;;;1.92;75.19
39455;BME280;25155;41.890;23.446;2024-02-14T00:05:06;91380.09;;;1.84;75.02
39455;BME280;25155;41.890;23.446;2024-02-14T00:07:34;91386.78;;;1.85;75.08
39455;BME280;25155;41.890;23.446;2024-02-14T00:10:01;91395.25;;;1.81;74.97
39455;BME280;25155;41.890;23.446;2024-02-14T00:12:28;91402.91;;;1.76;75.05
39455;BME280;25155;41.890;23.446;2024-02-14T00:14:57;91395.47;;;1.62;75.60
39455;BME280;25155;41.890;23.446;2024-02-14T00:17:24;91397.25;;;1.62;75.43
39455;BME280;25155;41.890;23.446;2024-02-14T00:19:53;91404.69;;;1.58;75.81
39455;BME280;25155;41.890;23.446;2024-02-14T00:22:20;91403.13;;;1.57;75.28
39455;BME280;25155;41.890;23.446;2024-02-14T00:24:47;91404.28;;;1.49;75.61
39455;BME280;25155;41.890;23.446;2024-02-14T00:27:15;91414.28;;;1.46;75.90
39455;BME280;25155;41.890;23.446;2024-02-14T00:29:43;91409.25;;;1.39;75.86
39455;BME280;25155;41.890;23.446;2024-02-14T00:32:14;91412.31;;;1.36;75.84
39455;BME280;25155;41.890;23.446;2024-02-14T00:34:41;91419.03;;;1.37;76.27
39455;BME280;25155;41.890;23.446;2024-02-14T00:37:09;91431.78;;;1.44;75.82
39455;BME280;25155;41.890;23.446;2024-02-14T00:39:36;91441.78;;;1.57;75.79
39455;BME280;25155;41.890;23.446;2024-02-14T00:42:03;91440.41;;;1.66;75.39
39455;BME280;25155;41.890;23.446;2024-02-14T00:44:31;91414.69;;;1.55;74.82
39455;BME280;25155;41.890;23.446;2024-02-14T00:46:58;91434.56;;;1.71;74.88
39455;BME280;25155;41.890;23.446;2024-02-14T00:49:29;91427.28;;;1.68;74.58
39455;BME280;25155;41.890;23.446;2024-02-14T00:51:57;91430.88;;;1.67;74.31
39455;BME280;25155;41.890;23.446;2024-02-14T00:54:24;91428.28;;;1.67;74.31
39455;BME280;25155;41.890;23.446;2024-02-14T00:56:52;91426.25;;;1.69;74.25
39455;BME280;25155;41.890;23.446;2024-02-14T00:59:20;91420.72;;;1.60;74.29
39455;BME280;25155;41.890;23.446;2024-02-14T01:01:47;91423.53;;;1.59;74.30
39455;BME280;25155;41.890;23.446;2024-02-14T01:04:14;91418.94;;;1.61;74.99
39455;BME280;25155;41.890;23.446;2024-02-14T01:06:43;91411.00;;;1.50;74.65
39455;BME280;25155;41.890;23.446;2024-02-14T01:09:10;91425.78;;;1.55;75.16
39455;BME280;25155;41.890;23.446;2024-02-14T01:11:38;91418.19;;;1.48;74.75
39455;BME280;25155;41.890;23.446;2024-02-14T01:14:05;91418.88;;;1.44;75.22
39455;BME280;25155;41.890;23.446;2024-02-14T01:16:32;91411.84;;;1.39;74.94
39455;BME280;25155;41.890;23.446;2024-02-14T01:19:00;91410.84;;;1.40;75.31
39455;BME280;25155;41.890;23.446;2024-02-14T01:21:28;91409.22;;;1.51;74.83
39455;BME280;25155;41.890;23.446;2024-02-14T01:23:56;91419.31;;;1.53;74.69
39455;BME280;25155;41.890;23.446;2024-02-14T01:26:24;91425.88;;;1.60;74.62
39455;BME280;25155;41.890;23.446;2024-02-14T01:28:51;91434.50;;;1.66;74.55
39455;BME280;25155;41.890;23.446;2024-02-14T01:31:18;91427.59;;;1.72;74.49
39455;BME280;25155;41.890;23.446;2024-02-14T01:33:45;91429.56;;;1.81;73.69
39455;BME280;25155;41.890;23.446;2024-02-14T01:36:13;91423.63;;;1.81;73.59
39455;BME280;25155;41.890;23.446;2024-02-14T01:38:40;91425.25;;;1.87;73.61
39455;BME280;25155;41.890;23.446;2024-02-14T01:41:10;91421.97;;;1.92;73.43
39455;BME280;25155;41.890;23.446;2024-02-14T01:43:37;91419.25;;;1.98;73.60
39455;BME280;25155;41.890;23.446;2024-02-14T01:46:05;91427.22;;;1.97;73.31
39455;BME280;25155;41.890;23.446;2024-02-14T01:48:33;91422.28;;;1.95;72.84
39455;BME280;25155;41.890;23.446;2024-02-14T01:51:03;91406.75;;;1.90;72.66
39455;BME280;25155;41.890;23.446;2024-02-14T01:53:31;91409.94;;;1.80;72.92
39455;BME280;25155;41.890;23.446;2024-02-14T01:55:59;91410.41;;;1.77;72.79
39455;BME280;25155;41.890;23.446;2024-02-14T01:58:29;91413.69;;;1.73;73.09
39455;BME280;25155;41.890;23.446;2024-02-14T02:00:57;91412.97;;;1.77;72.84
39455;BME280;25155;41.890;23.446;2024-02-14T02:03:25;91400.47;;;1.69;73.16
39455;BME280;25155;41.890;23.446;2024-02-14T02:05:52;91402.19;;;1.63;73.23
39455;BME280;25155;41.890;23.446;2024-02-14T02:08:21;91413.50;;;1.62;72.96
39455;BME280;25155;41.890;23.446;2024-02-14T02:10:48;91426.75;;;1.66;72.79
39455;BME280;25155;41.890;23.446;2024-02-14T02:13:16;91420.88;;;1.70;72.33
39455;BME280;25155;41.890;23.446;2024-02-14T02:15:44;91426.25;;;1.69;72.60
39455;BME280;25155;41.890;23.446;2024-02-14T02:18:12;91433.00;;;1.70;72.66
39455;BME280;25155;41.890;23.446;2024-02-14T02:20:42;91440.28;;;1.73;72.62
39455;BME280;25155;41.890;23.446;2024-02-14T02:23:11;91424.31;;;1.59;72.59
39455;BME280;25155;41.890;23.446;2024-02-14T02:25:40;91442.81;;;1.27;72.93
39455;BME280;25155;41.890;23.446;2024-02-14T02:28:07;91442.97;;;1.49;73.11
39455;BME280;25155;41.890;23.446;2024-02-14T02:30:36;91449.06;;;1.60;72.41
39455;BME280;25155;41.890;23.446;2024-02-14T02:33:04;91454.78;;;1.62;72.16
39455;BME280;25155;41.890;23.446;2024-02-14T02:35:33;91462.28;;;1.64;71.96
39455;BME280;25155;41.890;23.446;2024-02-14T02:38:00;91456.13;;;1.65;72.17
39455;BME280;25155;41.890;23.446;2024-02-14T02:40:28;91456.66;;;1.67;72.21
39455;BME280;25155;41.890;23.446;2024-02-14T02:42:56;91454.41;;;1.70;71.96
39455;BME280;25155;41.890;23.446;2024-02-14T02:45:25;91460.69;;;1.75;72.28
39455;BME280;25155;41.890;23.446;2024-02-14T02:47:52;91459.19;;;1.79;71.72
39455;BME280;25155;41.890;23.446;2024-02-14T02:50:21;91462.34;;;1.81;71.59
39455;BME280;25155;41.890;23.446;2024-02-14T02:52:48;91464.09;;;1.80;71.36
39455;BME280;25155;41.890;23.446;2024-02-14T02:55:15;91465.16;;;1.79;71.43
39455;BME280;25155;41.890;23.446;2024-02-14T02:57:45;91467.16;;;1.77;71.64
39455;BME280;25155;41.890;23.446;2024-02-14T03:00:13;91470.22;;;1.74;72.12
39455;BME280;25155;41.890;23.446;2024-02-14T03:02:42;91465.75;;;1.69;72.20
39455;BME280;25155;41.890;23.446;2024-02-14T03:05:10;91458.69;;;1.65;72.17
39455;BME280;25155;41.890;23.446;2024-02-14T03:07:43;91466.53;;;1.70;72.27
39455;BME280;25155;41.890;23.446;2024-02-14T03:10:13;91471.91;;;1.68;72.15
39455;BME280;25155;41.890;23.446;2024-02-14T03:12:46;91469.00;;;1.65;72.55
39455;BME280;25155;41.890;23.446;2024-02-14T03:15:14;91476.75;;;1.65;72.13
39455;BME280;25155;41.890;23.446;2024-02-14T03:17:41;91466.97;;;1.67;72.29
39455;BME280;25155;41.890;23.446;2024-02-14T03:20:10;91469.94;;;1.59;72.04
39455;BME280;25155;41.890;23.446;2024-02-14T03:22:38;91475.66;;;1.61;72.37
39455;BME280;25155;41.890;23.446;2024-02-14T03:25:09;91463.22;;;1.58;72.16
39455;BME280;25155;41.890;23.446;2024-02-14T03:27:36;91472.44;;;1.54;72.34
39455;BME280;25155;41.890;23.446;2024-02-14T03:30:06;91484.00;;;1.51;72.83
39455;BME280;25155;41.890;23.446;2024-02-14T03:32:34;91476.25;;;1.51;72.99
39455;BME280;25155;41.890;23.446;2024-02-14T03:35:01;91474.47;;;1.51;72.56
39455;BME280;25155;41.890;23.446;2024-02-14T03:37:28;91475.22;;;1.52;72.34
39455;BME280;25155;41.890;23.446;2024-02-14T03:39:55;91481.41;;;1.51;72.81
39455;BME280;25155;41.890;23.446;2024-02-14T03:42:23;91487.03;;;1.48;72.62
39455;BME280;25155;41.890;23.446;2024-02-14T03:44:52;91498.34;;;1.47;72.70
39455;BME280;25155;41.890;23.446;2024-02-14T03:47:29;91499.94;;;1.48;72.66
39455;BME280;25155;41.890;23.446;2024-02-14T03:49:57;91493.97;;;1.47;72.74
39455;BME280;25155;41.890;23.446;2024-02-14T03:52:24;91503.38;;;1.54;72.68
39455;BME280;25155;41.890;23.446;2024-02-14T03:54:52;91505.41;;;1.51;72.76
39455;BME280;25155;41.890;23.446;2024-02-14T03:57:20;91506.97;;;1.53;72.27
39455;BME280;25155;41.890;23.446;2024-02-14T03:59:47;91502.38;;;1.55;72.14
39455;BME280;25155;41.890;23.446;2024-02-14T04:02:14;91498.53;;;1.57;72.27
39455;BME280;25155;41.890;23.446;2024-02-14T04:04:43;91499.78;;;1.55;71.81
39455;BME280;25155;41.890;23.446;2024-02-14T04:07:12;91498.97;;;1.54;71.83
39455;BME280;25155;41.890;23.446;2024-02-14T04:09:39;91506.72;;;1.54;71.80
39455;BME280;25155;41.890;23.446;2024-02-14T04:12:07;91510.66;;;1.57;71.82
39455;BME280;25155;41.890;23.446;2024-02-14T04:14:36;91514.00;;;1.57;71.55
39455;BME280;25155;41.890;23.446;2024-02-14T04:17:04;91507.28;;;1.56;71.95
39455;BME280;25155;41.890;23.446;2024-02-14T04:19:33;91500.25;;;1.51;71.69
39455;BME280;25155;41.890;23.446;2024-02-14T04:22:02;91505.09;;;1.48;71.83
39455;BME280;25155;41.890;23.446;2024-02-14T04:24:33;91499.94;;;1.48;72.05
39455;BME280;25155;41.890;23.446;2024-02-14T04:27:00;91503.81;;;1.50;72.06
39455;BME280;25155;41.890;23.446;2024-02-14T04:29:32;91511.09;;;1.54;71.57
39455;BME280;25155;41.890;23.446;2024-02-14T04:32:00;91516.50;;;1.52;71.43
39455;BME280;25155;41.890;23.446;2024-02-14T04:34:28;91525.25;;;1.51;71.90
39455;BME280;25155;41.890;23.446;2024-02-14T04:36:55;91528.84;;;1.50;71.45
39455;BME280;25155;41.890;23.446;2024-02-14T04:39:24;91540.38;;;1.47;71.43
39455;BME280;25155;41.890;23.446;2024-02-14T04:41:53;91536.16;;;1.41;71.25
39455;BME280;25155;41.890;23.446;2024-02-14T04:44:20;91542.75;;;1.37;70.50
39455;BME280;25155;41.890;23.446;2024-02-14T04:46:47;91545.91;;;1.27;70.54
39455;BME280;25155;41.890;23.446;2024-02-14T04:49:15;91556.34;;;1.21;70.47
39455;BME280;25155;41.890;23.446;2024-02-14T04:51:42;91553.13;;;1.13;71.03
39455;BME280;25155;41.890;23.446;2024-02-14T04:54:10;91554.34;;;1.11;70.56
39455;BME280;25155;41.890;23.446;2024-02-14T04:56:40;91567.94;;;1.06;70.76
39455;BME280;25155;41.890;23.446;2024-02-14T04:59:08;91572.50;;;1.04;71.20
39455;BME280;25155;41.890;23.446;2024-02-14T05:01:35;91570.50;;;1.06;70.88
39455;BME280;25155;41.890;23.446;2024-02-14T05:04:02;91571.72;;;1.04;71.49
39455;BME280;25155;41.890;23.446;2024-02-14T05:06:30;91576.00;;;0.98;71.07
39455;BME280;25155;41.890;23.446;2024-02-14T05:08:57;91575.91;;;0.93;71.22
39455;BME280;25155;41.890;23.446;2024-02-14T05:11:24;91580.25;;;0.92;71.78
39455;BME280;25155;41.890;23.446;2024-02-14T05:13:53;91580.47;;;0.91;71.46
39455;BME280;25155;41.890;23.446;2024-02-14T05:16:20;91580.25;;;0.92;72.12
39455;BME280;25155;41.890;23.446;2024-02-14T05:18:49;91591.91;;;0.95;71.65
39455;BME280;25155;41.890;23.446;2024-02-14T05:21:20;91583.03;;;0.91;71.92
39455;BME280;25155;41.890;23.446;2024-02-14T05:23:47;91594.03;;;0.98;71.77
39455;BME280;25155;41.890;23.446;2024-02-14T05:26:16;91591.47;;;0.98;71.71
39455;BME280;25155;41.890;23.446;2024-02-14T05:28:43;91588.41;;;1.01;71.84
39455;BME280;25155;41.890;23.446;2024-02-14T05:31:12;91598.97;;;1.00;72.10
39455;BME280;25155;41.890;23.446;2024-02-14T05:33:39;91605.91;;;0.99;72.00
39455;BME280;25155;41.890;23.446;2024-02-14T05:36:07;91598.72;;;1.01;71.98
39455;BME280;25155;41.890;23.446;2024-02-14T05:38:34;91608.25;;;1.01;72.16
39455;BME280;25155;41.890;23.446;2024-02-14T05:41:02;91617.44;;;0.97;72.55
39455;BME280;25155;41.890;23.446;2024-02-14T05:43:29;91597.72;;;0.79;73.41
39455;BME280;25155;41.890;23.446;2024-02-14T05:45:57;91614.41;;;0.88;73.72
39455;BME280;25155;41.890;23.446;2024-02-14T05:48:25;91618.13;;;0.92;73.28
39455;BME280;25155;41.890;23.446;2024-02-14T05:50:52;91619.59;;;1.00;73.51
39455;BME280;25155;41.890;23.446;2024-02-14T05:53:20;91610.94;;;1.06;73.26
39455;BME280;25155;41.890;23.446;2024-02-14T05:55:47;91611.25;;;1.09;72.99
39455;BME280;25155;41.890;23.446;2024-02-14T05:58:15;91614.75;;;1.15;73.44
39455;BME280;25155;41.890;23.446;2024-02-14T06:00:42;91612.50;;;1.19;72.79
39455;BME280;25155;41.890;23.446;2024-02-14T06:03:09;91605.91;;;1.23;72.61
39455;BME280;25155;41.890;23.446;2024-02-14T06:05:37;91617.00;;;1.23;73.16
39455;BME280;25155;41.890;23.446;2024-02-14T06:08:05;91621.25;;;1.29;72.96
39455;BME280;25155;41.890;23.446;2024-02-14T06:10:33;91629.53;;;1.31;72.87
39455;BME280;25155;41.890;23.446;2024-02-14T06:13:01;91639.63;;;1.33;72.82
39455;BME280;25155;41.890;23.446;2024-02-14T06:15:28;91629.31;;;1.33;72.62
39455;BME280;25155;41.890;23.446;2024-02-14T06:17:55;91641.63;;;1.31;72.44
39455;BME280;25155;41.890;23.446;2024-02-14T06:20:23;91640.75;;;1.25;72.36
39455;BME280;25155;41.890;23.446;2024-02-14T06:22:51;91645.56;;;1.22;72.36
39455;BME280;25155;41.890;23.446;2024-02-14T06:25:20;91655.53;;;1.18;72.62
39455;BME280;25155;41.890;23.446;2024-02-14T06:27:47;91655.75;;;1.17;72.61
39455;BME280;25155;41.890;23.446;2024-02-14T06:30:14;91665.63;;;1.20;73.02
39455;BME280;25155;41.890;23.446;2024-02-14T06:32:42;91658.44;;;1.22;72.75
39455;BME280;25155;41.890;23.446;2024-02-14T06:35:09;91654.88;;;1.23;72.74
39455;BME280;25155;41.890;23.446;2024-02-14T06:37:37;91658.22;;;1.23;72.87
39455;BME280;25155;41.890;23.446;2024-02-14T06:40:06;91663.06;;;1.20;72.93
39455;BME280;25155;41.890;23.446;2024-02-14T06:42:36;91664.94;;;1.24;73.34
39455;BME280;25155;41.890;23.446;2024-02-14T06:45:03;91657.56;;;1.28;73.21
39455;BME280;25155;41.890;23.446;2024-02-14T06:47:31;91660.03;;;1.35;72.86
39455;BME280;25155;41.890;23.446;2024-02-14T06:49:58;91660.34;;;1.38;73.34
39455;BME280;25155;41.890;23.446;2024-02-14T06:52:26;91651.16;;;1.42;73.41
39455;BME280;25155;41.890;23.446;2024-02-14T06:54:53;91658.22;;;1.47;73.09
39455;BME280;25155;41.890;23.446;2024-02-14T06:57:21;91661.13;;;1.50;73.43
39455;BME280;25155;41.890;23.446;2024-02-14T06:59:48;91669.53;;;1.58;73.40
39455;BME280;25155;41.890;23.446;2024-02-14T07:02:15;91668.59;;;1.64;73.46
39455;BME280;25155;41.890;23.446;2024-02-14T07:04:42;91669.75;;;1.68;73.48
39455;BME280;25155;41.890;23.446;2024-02-14T07:07:09;91682.75;;;1.73;73.39
39455;BME280;25155;41.890;23.446;2024-02-14T07:09:36;91675.88;;;1.79;73.55
39455;BME280;25155;41.890;23.446;2024-02-14T07:12:05;91676.22;;;1.82;73.59
39455;BME280;25155;41.890;23.446;2024-02-14T07:14:33;91674.44;;;1.83;73.86
39455;BME280;25155;41.890;23.446;2024-02-14T07:17:01;91670.59;;;1.85;73.97
39455;BME280;25155;41.890;23.446;2024-02-14T07:19:29;91677.97;;;1.94;73.54
39455;BME280;25155;41.890;23.446;2024-02-14T07:21:56;91685.81;;;1.99;73.88
39455;BME280;25155;41.890;23.446;2024-02-14T07:24:23;91689.53;;;2.03;73.70
39455;BME280;25155;41.890;23.446;2024-02-14T07:26:50;91685.34;;;2.02;73.69
39455;BME280;25155;41.890;23.446;2024-02-14T07:29:17;91687.72;;;2.03;73.66
39455;BME280;25155;41.890;23.446;2024-02-14T07:31:46;91694.00;;;2.07;74.13
39455;BME280;25155;41.890;23.446;2024-02-14T07:34:13;91698.13;;;2.09;73.78
39455;BME280;25155;41.890;23.446;2024-02-14T07:36:40;91702.28;;;2.10;74.06
39455;BME280;25155;41.890;23.446;2024-02-14T07:39:12;91703.41;;;2.14;73.99
39455;BME280;25155;41.890;23.446;2024-02-14T07:41:39;91697.66;;;2.23;74.44
39455;BME280;25155;41.890;23.446;2024-02-14T07:44:06;91699.88;;;2.32;74.42
39455;BME280;25155;41.890;23.446;2024-02-14T07:46:33;91694.34;;;2.40;74.06
39455;BME280;25155;41.890;23.446;2024-02-14T07:49:02;91694.69;;;2.43;74.42
39455;BME280;25155;41.890;23.446;2024-02-14T07:51:30;91694.53;;;2.50;73.98
39455;BME280;25155;41.890;23.446;2024-02-14T07:54:02;91705.19;;;2.54;74.20
39455;BME280;25155;41.890;23.446;2024-02-14T07:56:29;91703.94;;;2.56;73.70
39455;BME280;25155;41.890;23.446;2024-02-14T07:58:56;91714.34;;;2.61;74.11
39455;BME280;25155;41.890;23.446;2024-02-14T08:01:24;91717.03;;;2.67;73.89
39455;BME280;25155;41.890;23.446;2024-02-14T08:03:52;91718.38;;;2.69;73.59
39455;BME280;25155;41.890;23.446;2024-02-14T08:06:21;91719.59;;;2.67;73.59
39455;BME280;25155;41.890;23.446;2024-02-14T08:08:48;91719.81;;;2.77;73.51
39455;BME280;25155;41.890;23.446;2024-02-14T08:11:18;91720.91;;;2.81;73.88
39455;BME280;25155;41.890;23.446;2024-02-14T08:13:45;91717.84;;;2.84;73.99
39455;BME280;25155;41.890;23.446;2024-02-14T08:16:12;91726.38;;;2.85;73.58
39455;BME280;25155;41.890;23.446;2024-02-14T08:18:39;91735.25;;;2.89;73.56
39455;BME280;25155;41.890;23.446;2024-02-14T08:21:09;91724.75;;;2.95;73.40
39455;BME280;25155;41.890;23.446;2024-02-14T08:23:39;91726.31;;;2.96;73.76
39455;BME280;25155;41.890;23.446;2024-02-14T08:26:07;91728.50;;;3.05;73.41
39455;BME280;25155;41.890;23.446;2024-02-14T08:28:36;91728.06;;;3.08;73.15
39455;BME280;25155;41.890;23.446;2024-02-14T08:31:03;91733.31;;;3.13;73.10
39455;BME280;25155;41.890;23.446;2024-02-14T08:33:36;91726.66;;;3.17;73.04
39455;BME280;25155;41.890;23.446;2024-02-14T08:36:04;91726.75;;;3.22;73.36
39455;BME280;25155;41.890;23.446;2024-02-14T08:38:31;91733.03;;;3.26;73.38
39455;BME280;25155;41.890;23.446;2024-02-14T08:41:00;91724.78;;;3.29;72.71
39455;BME280;25155;41.890;23.446;2024-02-14T08:43:28;91733.19;;;3.36;72.71
39455;BME280;25155;41.890;23.446;2024-02-14T08:45:55;91731.44;;;3.42;72.61
39455;BME280;25155;41.890;23.446;2024-02-14T08:48:22;91737.16;;;3.44;73.11
39455;BME280;25155;41.890;23.446;2024-02-14T08:50:49;91742.41;;;3.49;73.15
39455;BME280;25155;41.890;23.446;2024-02-14T08:53:17;91742.28;;;3.56;73.10
39455;BME280;25155;41.890;23.446;2024-02-14T08:55:44;91744.94;;;3.61;72.38
39455;BME280;25155;41.890;23.446;2024-02-14T08:58:12;91746.25;;;3.64;72.60
39455;BME280;25155;41.890;23.446;2024-02-14T09:00:40;91749.69;;;3.69;72.78
39455;BME280;25155;41.890;23.446;2024-02-14T09:03:07;91750.47;;;3.70;72.23
39455;BME280;25155;41.890;23.446;2024-02-14T09:05:34;91753.84;;;3.70;72.44
39455;BME280;25155;41.890;23.446;2024-02-14T09:08:03;91757.78;;;3.73;72.11
39455;BME280;25155;41.890;23.446;2024-02-14T09:10:30;91753.69;;;3.77;72.02
39455;BME280;25155;41.890;23.446;2024-02-14T09:12:58;91755.78;;;3.80;71.99
39455;BME280;25155;41.890;23.446;2024-02-14T09:15:28;91761.28;;;3.84;72.24
39455;BME280;25155;41.890;23.446;2024-02-14T09:17:56;91758.22;;;3.87;71.96
39455;BME280;25155;41.890;23.446;2024-02-14T09:20:25;91758.28;;;3.92;71.75
39455;BME280;25155;41.890;23.446;2024-02-14T09:22:52;91756.81;;;3.96;71.09
39455;BME280;25155;41.890;23.446;2024-02-14T09:25:20;91768.16;;;3.95;70.80
39455;BME280;25155;41.890;23.446;2024-02-14T09:27:49;91759.84;;;3.93;70.56
39455;BME280;25155;41.890;23.446;2024-02-14T09:30:16;91761.16;;;3.96;70.55
39455;BME280;25155;41.890;23.446;2024-02-14T09:32:45;91771.31;;;3.97;70.51
39455;BME280;25155;41.890;23.446;2024-02-14T09:35:13;91765.66;;;4.00;70.35
39455;BME280;25155;41.890;23.446;2024-02-14T09:37:40;91759.00;;;4.04;70.31
39455;BME280;25155;41.890;23.446;2024-02-14T09:40:08;91760.31;;;4.07;70.73
39455;BME280;25155;41.890;23.446;2024-02-14T09:42:43;91755.69;;;4.09;70.84
39455;BME280;25155;41.890;23.446;2024-02-14T09:45:11;91760.16;;;4.14;69.84
39455;BME280;25155;41.890;23.446;2024-02-14T09:47:39;91749.06;;;4.18;70.14
39455;BME280;25155;41.890;23.446;2024-02-14T09:50:09;91750.41;;;4.21;69.69
39455;BME280;25155;41.890;23.446;2024-02-14T09:52:39;91759.31;;;4.30;69.87
39455;BME280;25155;41.890;23.446;2024-02-14T09:55:09;91749.59;;;4.37;69.72
39455;BME280;25155;41.890;23.446;2024-02-14T09:57:41;91748.59;;;4.43;69.38
39455;BME280;25155;41.890;23.446;2024-02-14T10:00:10;91749.22;;;4.51;70.05
39455;BME280;25155;41.890;23.446;2024-02-14T10:02:38;91751.38;;;4.59;69.59
39455;BME280;25155;41.890;23.446;2024-02-14T10:05:05;91755.16;;;4.73;69.91
39455;BME280;25155;41.890;23.446;2024-02-14T10:07:41;91744.84;;;4.78;69.57
39455;BME280;25155;41.890;23.446;2024-02-14T10:10:09;91748.56;;;4.88;69.79
39455;BME280;25155;41.890;23.446;2024-02-14T10:12:37;91746.78;;;4.93;69.77
39455;BME280;25155;41.890;23.446;2024-02-14T10:15:08;91748.66;;;4.98;68.99
39455;BME280;25155;41.890;23.446;2024-02-14T10:17:35;91749.75;;;5.02;68.61
39455;BME280;25155;41.890;23.446;2024-02-14T10:20:03;91739.13;;;5.04;68.32
39455;BME280;25155;41.890;23.446;2024-02-14T10:22:34;91742.25;;;5.06;67.76
39455;BME280;25155;41.890;23.446;2024-02-14T10:25:04;91733.59;;;4.95;64.59
39455;BME280;25155;41.890;23.446;2024-02-14T10:27:36;91740.94;;;4.76;62.99
39455;BME280;25155;41.890;23.446;2024-02-14T10:30:05;91738.72;;;4.62;62.98
39455;BME280;25155;41.890;23.446;2024-02-14T10:32:34;91744.50;;;4.47;63.14
39455;BME280;25155;41.890;23.446;2024-02-14T10:35:04;91745.94;;;4.38;62.42
39455;BME280;25155;41.890;23.446;2024-02-14T10:37:34;91745.50;;;4.02;63.41
39455;BME280;25155;41.890;23.446;2024-02-14T10:40:03;91740.59;;;4.23;63.63
39455;BME280;25155;41.890;23.446;2024-02-14T10:42:32;91731.88;;;4.29;63.41
39455;BME280;25155;41.890;23.446;2024-02-14T10:44:59;91736.25;;;4.28;62.50
39455;BME280;25155;41.890;23.446;2024-02-14T10:47:31;91738.38;;;4.32;63.39
39455;BME280;25155;41.890;23.446;2024-02-14T10:50:01;91737.53;;;4.26;63.32
39455;BME280;25155;41.890;23.446;2024-02-14T10:52:31;91734.41;;;4.24;62.81
39455;BME280;25155;41.890;23.446;2024-02-14T10:54:59;91738.47;;;4.20;62.39
39455;BME280;25155;41.890;23.446;2024-02-14T10:57:30;91736.84;;;4.14;62.64
39455;BME280;25155;41.890;23.446;2024-02-14T10:59:59;91731.78;;;4.02;62.40
39455;BME280;25155;41.890;23.446;2024-02-14T11:02:28;91728.19;;;4.03;62.89
39455;BME280;25155;41.890;23.446;2024-02-14T11:04:56;91741.66;;;4.05;62.44
39455;BME280;25155;41.890;23.446;2024-02-14T11:07:23;91734.84;;;3.99;62.65
39455;BME280;25155;41.890;23.446;2024-02-14T11:10:01;91729.91;;;3.97;62.39
39455;BME280;25155;41.890;23.446;2024-02-14T11:12:34;91732.69;;;3.96;62.59
39455;BME280;25155;41.890;23.446;2024-02-14T11:15:09;91739.47;;;3.97;62.67
39455;BME280;25155;41.890;23.446;2024-02-14T11:17:37;91730.22;;;4.01;62.49
39455;BME280;25155;41.890;23.446;2024-02-14T11:20:15;91738.03;;;3.89;62.66
39455;BME280;25155;41.890;23.446;2024-02-14T11:22:58;91733.03;;;3.82;62.38
39455;BME280;25155;41.890;23.446;2024-02-14T11:25:29;91727.25;;;3.75;62.40
39455;BME280;25155;41.890;23.446;2024-02-14T11:28:12;91733.59;;;3.67;61.84
39455;BME280;25155;41.890;23.446;2024-02-14T11:30:41;91732.06;;;3.66;62.81
39455;BME280;25155;41.890;23.446;2024-02-14T11:33:18;91729.34;;;3.56;62.65
39455;BME280;25155;41.890;23.446;2024-02-14T11:35:46;91732.69;;;3.57;63.34
39455;BME280;25155;41.890;23.446;2024-02-14T11:38:15;91725.25;;;3.60;63.42
39455;BME280;25155;41.890;23.446;2024-02-14T11:40:43;91728.66;;;3.66;62.90
39455;BME280;25155;41.890;23.446;2024-02-14T11:43:12;91735.59;;;3.60;63.05
39455;BME280;25155;41.890;23.446;2024-02-14T11:45:41;91736.06;;;3.57;62.99
39455;BME280;25155;41.890;23.446;2024-02-14T11:48:10;91732.06;;;3.49;62.88
39455;BME280;25155;41.890;23.446;2024-02-14T11:50:39;91739.50;;;3.46;63.04
39455;BME280;25155;41.890;23.446;2024-02-14T11:53:07;91731.66;;;3.41;62.94
39455;BME280;25155;41.890;23.446;2024-02-14T11:55:36;91723.69;;;3.42;63.29
39455;BME280;25155;41.890;23.446;2024-02-14T11:58:07;91742.16;;;3.51;63.94
39455;BME280;25155;41.890;23.446;2024-02-14T12:00:39;91723.97;;;3.46;62.92
39455;BME280;25155;41.890;23.446;2024-02-14T12:03:07;91739.91;;;3.54;62.67
39455;BME280;25155;41.890;23.446;2024-02-14T12:05:36;91722.19;;;3.46;62.77
39455;BME280;25155;41.890;23.446;2024-02-14T12:08:04;91736.66;;;3.64;62.77
39455;BME280;25155;41.890;23.446;2024-02-14T12:10:33;91727.91;;;3.65;62.57
39455;BME280;25155;41.890;23.446;2024-02-14T12:13:06;91734.47;;;3.73;62.50
39455;BME280;25155;41.890;23.446;2024-02-14T12:15:40;91735.22;;;3.90;63.13
39455;BME280;25155;41.890;23.446;2024-02-14T12:18:08;91726.44;;;4.08;62.73
39455;BME280;25155;41.890;23.446;2024-02-14T12:20:36;91731.72;;;4.19;61.83
39455;BME280;25155;41.890;23.446;2024-02-14T12:23:04;91741.59;;;4.22;60.70
39455;BME280;25155;41.890;23.446;2024-02-14T12:25:33;91734.41;;;4.24;60.59
39455;BME280;25155;41.890;23.446;2024-02-14T12:28:00;91723.25;;;4.23;60.43
39455;BME280;25155;41.890;23.446;2024-02-14T12:30:45;91731.88;;;4.29;61.18
39455;BME280;25155;41.890;23.446;2024-02-14T12:33:15;91723.72;;;4.42;60.95
39455;BME280;25155;41.890;23.446;2024-02-14T12:35:44;91732.63;;;4.52;60.99
39455;BME280;25155;41.890;23.446;2024-02-14T12:38:12;91736.94;;;4.68;60.24
39455;BME280;25155;41.890;23.446;2024-02-14T12:40:41;91730.38;;;4.82;59.43
39455;BME280;25155;41.890;23.446;2024-02-14T12:43:10;91721.44;;;4.95;59.93
39455;BME280;25155;41.890;23.446;2024-02-14T12:45:37;91719.44;;;5.08;59.40
39455;BME280;25155;41.890;23.446;2024-02-14T12:48:06;91723.41;;;5.15;58.68
39455;BME280;25155;41.890;23.446;2024-02-14T12:50:36;91725.81;;;5.22;58.81
39455;BME280;25155;41.890;23.446;2024-02-14T12:53:04;91722.50;;;5.32;58.84
39455;BME280;25155;41.890;23.446;2024-02-14T12:55:31;91723.41;;;5.48;58.58
39455;BME280;25155;41.890;23.446;2024-02-14T12:57:58;91707.13;;;5.57;58.62
39455;BME280;25155;41.890;23.446;2024-02-14T13:00:26;91725.94;;;5.75;57.62
39455;BME280;25155;41.890;23.446;2024-02-14T13:02:54;91718.91;;;5.75;57.37
39455;BME280;25155;41.890;23.446;2024-02-14T13:05:23;91724.16;;;5.86;58.01